createdAt,value
2019-03-19T09:39:17.868Z,1016.30
2019-03-19T09:40:17.848Z,1016.31
2019-03-19T09:41:17.831Z,1016.06
2019-03-19T09:42:17.823Z,1016.44
2019-03-19T09:43:17.823Z,1016.36
2019-03-19T09:44:17.798Z,1016.40
2019-03-19T09:45:17.784Z,1016.35
2019-03-19T09:46:18.643Z,1016.42
2019-03-19T09:47:17.762Z,1016.40
2019-03-19T09:48:17.768Z,1016.50
2019-03-19T09:49:17.742Z,1016.46
2019-03-19T09:50:17.753Z,1016.38
2019-03-19T09:51:17.717Z,1016.18
2019-03-19T09:52:17.707Z,1015.99
2019-03-19T09:53:18.757Z,1016.08
2019-03-19T09:54:17.684Z,1016.06
2019-03-19T09:55:17.670Z,1015.98
2019-03-19T09:56:17.663Z,1015.95
2019-03-19T09:57:17.650Z,1015.96
2019-03-19T09:58:17.636Z,1015.98
2019-03-19T09:59:26.840Z,1015.90
2019-03-19T10:00:18.617Z,1015.94
2019-03-19T10:01:17.603Z,1015.92
2019-03-19T10:02:17.592Z,1016.21
2019-03-19T10:03:17.581Z,1016.29
2019-03-19T10:04:17.586Z,1016.37
2019-03-19T10:05:17.558Z,1016.42
2019-03-19T10:06:17.547Z,1015.90
2019-03-19T10:07:17.536Z,1015.93
2019-03-19T10:08:17.523Z,1015.95
2019-03-19T10:09:17.575Z,1016.41
2019-03-19T10:10:17.576Z,1016.43
2019-03-19T10:11:17.488Z,1016.42
2019-03-19T10:12:17.477Z,1016.19
2019-03-19T10:13:17.468Z,1016.17
2019-03-19T10:14:17.475Z,1016.49
2019-03-19T10:15:17.450Z,1016.27
2019-03-19T10:16:17.434Z,1016.54
2019-03-19T10:17:17.421Z,1016.42
2019-03-19T10:18:17.409Z,1016.15
2019-03-19T10:19:17.417Z,1016.22
2019-03-19T10:20:18.078Z,1016.51
2019-03-19T10:21:17.376Z,1016.46
2019-03-19T10:22:17.365Z,1016.29
2019-03-19T10:23:17.353Z,1016.25
2019-03-19T10:24:17.358Z,1016.36
2019-03-19T10:25:17.334Z,1016.39
2019-03-19T10:26:17.316Z,1016.19
2019-03-19T10:27:19.567Z,1016.13
2019-03-19T10:28:17.318Z,1016.13
2019-03-19T10:29:17.310Z,1016.17
2019-03-19T10:30:17.274Z,1016.11
2019-03-19T10:31:17.266Z,1016.54
2019-03-19T10:32:17.250Z,1016.17
2019-03-19T10:33:17.238Z,1016.01
2019-03-19T10:34:17.228Z,1016.05
2019-03-19T10:35:17.235Z,1016.06
2019-03-19T10:36:17.206Z,1016.05
2019-03-19T10:37:17.194Z,1015.99
2019-03-19T10:38:17.181Z,1016.08
2019-03-19T10:39:17.174Z,1016.08
2019-03-19T10:40:17.177Z,1016.09
2019-03-19T10:41:17.146Z,1016.08
2019-03-19T10:42:17.136Z,1016.12
2019-03-19T10:43:17.126Z,1016.15
2019-03-19T10:44:17.113Z,1016.12
2019-03-19T10:45:17.123Z,1016.39
2019-03-19T10:46:17.092Z,1016.42
2019-03-19T10:47:17.077Z,1016.59
2019-03-19T10:48:17.065Z,1016.54
2019-03-19T10:49:17.054Z,1016.53
2019-03-19T10:50:17.070Z,1016.57
2019-03-19T10:51:17.034Z,1016.57
2019-03-19T10:52:17.027Z,1016.55
2019-03-19T10:53:17.007Z,1016.24
2019-03-19T10:54:16.999Z,1016.51
2019-03-19T10:55:17.005Z,1016.58
2019-03-19T10:56:16.975Z,1016.61
2019-03-19T10:57:16.962Z,1016.60
2019-03-19T10:58:16.951Z,1016.55
2019-03-19T10:59:16.940Z,1016.54
2019-03-19T11:00:16.953Z,1016.60
2019-03-19T11:01:16.920Z,1016.64
2019-03-19T11:02:16.906Z,1016.56
2019-03-19T11:03:16.898Z,1016.51
2019-03-19T16:06:46.819Z,1016.04
2019-03-19T16:07:46.807Z,1016.06
2019-03-19T16:08:46.778Z,1016.04
2019-03-19T16:09:46.766Z,1016.04
2019-03-19T16:10:46.752Z,1016.05
2019-03-19T16:11:46.744Z,1016.09
2019-03-19T16:12:46.757Z,1016.08
2019-03-19T16:13:46.718Z,1016.05
2019-03-19T16:14:46.752Z,1016.14
2019-03-19T16:15:46.695Z,1016.10
2019-03-19T16:16:46.687Z,1016.09
2019-03-19T16:17:46.697Z,1016.11
2019-03-19T16:18:46.677Z,1016.14
2019-03-19T16:19:46.648Z,1016.14
2019-03-19T16:20:46.639Z,1016.18
2019-03-19T16:21:47.595Z,1016.16
2019-03-19T16:22:46.619Z,1016.18
2019-03-19T16:23:46.631Z,1016.22
2019-03-19T16:24:46.591Z,1016.20
2019-03-19T16:25:46.579Z,1016.21
2019-03-19T16:26:46.570Z,1016.21
2019-03-19T16:27:46.559Z,1016.20
2019-03-19T16:28:46.563Z,1016.17
2019-03-19T16:29:46.535Z,1016.13
2019-03-19T16:30:46.528Z,1016.13
2019-03-19T16:31:50.883Z,1016.16
2019-03-19T16:32:46.501Z,1016.17
2019-03-19T16:33:46.508Z,1016.15
2019-03-19T16:34:46.476Z,1016.22
2019-03-19T16:35:46.465Z,1016.22
2019-03-19T16:36:46.454Z,1016.20
2019-03-19T16:37:46.441Z,1016.23
2019-03-19T16:38:46.453Z,1016.23
2019-03-19T16:39:46.428Z,1016.23
2019-03-19T16:40:46.412Z,1016.29
2019-03-19T16:41:46.395Z,1016.25
2019-03-19T16:42:46.399Z,1016.26
2019-03-19T16:43:46.373Z,1016.29
2019-03-19T16:44:46.378Z,1016.32
2019-03-19T16:45:46.348Z,1016.35
2019-03-19T16:46:46.343Z,1016.29
2019-03-19T16:47:46.327Z,1016.30
2019-03-19T16:48:46.344Z,1016.31
2019-03-19T16:49:46.335Z,1016.34
2019-03-19T16:50:46.296Z,1016.36
2019-03-19T16:51:46.286Z,1016.38
2019-03-19T16:52:46.269Z,1016.35
2019-03-19T16:53:46.258Z,1016.41
2019-03-19T16:54:46.265Z,1016.41
2019-03-19T16:55:46.237Z,1016.41
2019-03-19T16:56:46.225Z,1016.43
2019-03-19T16:57:46.208Z,1016.42
2019-03-19T16:58:46.200Z,1016.44
2019-03-19T16:59:46.211Z,1016.40
2019-03-19T17:00:46.180Z,1016.44
2019-03-19T17:01:46.168Z,1016.46
2019-03-19T17:02:46.156Z,1016.46
2019-03-19T17:03:46.139Z,1016.42
2019-03-19T17:04:46.132Z,1016.45
2019-03-19T17:05:46.142Z,1016.50
2019-03-19T17:06:46.105Z,1016.50
2019-03-19T17:07:46.098Z,1016.50
2019-03-19T17:08:46.082Z,1016.55
2019-03-19T17:09:46.090Z,1016.55
2019-03-19T17:10:46.079Z,1016.55
2019-03-19T17:11:46.048Z,1016.58
2019-03-19T17:12:46.036Z,1016.56
2019-03-19T17:13:46.022Z,1016.62
2019-03-19T17:14:46.010Z,1016.53
2019-03-19T17:15:46.020Z,1016.53
2019-03-19T17:16:45.987Z,1016.55
2019-03-19T17:17:45.977Z,1016.53
2019-03-19T17:18:45.967Z,1016.65
2019-03-19T17:19:45.953Z,1016.66
2019-03-19T17:20:45.965Z,1016.66
2019-03-19T17:21:45.933Z,1016.71
2019-03-19T17:22:45.918Z,1016.68
2019-03-19T17:23:45.909Z,1016.73
2019-03-19T17:24:45.895Z,1016.69
2019-03-19T17:25:45.884Z,1016.79
2019-03-19T17:26:45.894Z,1016.77
2019-03-19T17:27:45.859Z,1016.71
2019-03-19T17:28:45.849Z,1016.73
2019-03-19T17:29:45.837Z,1016.76
2019-03-19T17:30:45.827Z,1016.80
2019-03-19T17:31:45.834Z,1016.74
2019-03-19T17:32:45.802Z,1016.79
2019-03-19T17:33:45.792Z,1016.75
2019-03-19T17:34:45.817Z,1016.87
2019-03-19T17:35:45.769Z,1016.82
2019-03-19T17:36:45.779Z,1016.88
2019-03-19T17:37:45.748Z,1016.80
2019-03-19T17:38:45.733Z,1016.81
2019-03-19T17:39:45.725Z,1016.88
2019-03-19T17:40:45.710Z,1016.87
2019-03-19T17:41:45.718Z,1016.81
2019-03-19T17:42:45.689Z,1016.85
2019-03-19T17:43:45.678Z,1016.80
2019-03-19T17:44:45.665Z,1016.78
2019-03-19T17:45:45.653Z,1016.89
2019-03-19T17:46:45.661Z,1016.92
2019-03-19T17:47:45.631Z,1016.88
2019-03-19T17:48:45.618Z,1016.95
2019-03-19T17:49:45.605Z,1016.92
2019-03-19T17:50:45.595Z,1016.95
2019-03-19T17:51:45.584Z,1016.90
2019-03-19T17:52:45.644Z,1016.98
2019-03-19T17:53:45.558Z,1017.01
2019-03-19T17:54:45.548Z,1017.00
2019-03-19T17:55:45.535Z,1016.99
2019-03-19T17:56:45.526Z,1017.01
2019-03-19T17:57:45.528Z,1017.01
2019-03-19T17:58:45.499Z,1016.98
2019-03-19T17:59:45.487Z,1017.03
2019-03-19T18:00:45.477Z,1017.08
2019-03-19T18:01:45.463Z,1017.05
2019-03-19T18:02:45.470Z,1017.02
2019-03-19T18:03:45.449Z,1017.08
2019-03-19T18:04:45.429Z,1017.09
2019-03-19T18:05:45.416Z,1017.09
2019-03-19T18:06:45.405Z,1017.06
2019-03-19T18:07:45.426Z,1017.07
2019-03-19T18:08:45.381Z,1017.07
2019-03-19T18:09:45.369Z,1017.11
2019-03-19T18:10:45.405Z,1017.14
